SBSN/STM METAR and TAF weather

Enter ICAO airport designator
Station Type Date Time Source
SBSN METAR 2019/06/26 05:00 UTC NOAA

SBSN 260500Z 04004KT 9999 SCT013 26/24 Q1012


Station Type Date Time Source
SBSN Decoded METAR 2019/06/26 05:00 UTC NOAA

Santarem-Aeroporto, Brazil (SBSN) 02-26S 054-43W 72M
Jun 26, 2019 - 01:00 AM EDT / 2019.06.26 0500 UTC
Wind: from the NE (040 degrees) at 5 MPH (4 KT):0
Visibility: greater than 7 mile(s):0
Sky conditions: partly cloudy
Temperature: 78 F (26 C)
Dew Point: 75 F (24 C)
Relative Humidity: 88%
Pressure (altimeter): 29.88 in. Hg (1012 hPa)
ob: SBSN 260500Z 04004KT 9999 SCT013 26/24 Q1012
cycle: 5

Station Type Date Time Source
SBSN TAF 2019/06/26 06:09 UTC NOAA

TAF SBSN 260200Z 2606/2706 17005KT 9999 FEW015 TN23/2610Z TX31/2618Z
BECMG 2611/2613 10010KT PROB30 2618/2622 4000 SHRA SCT020 FEW025TCU
BECMG 2704/2706 17005KT
RMK PGZ

Example: see airport list